createdAt,value
2023-09-24T00:00:00.931Z,101498.75
2023-09-24T00:02:30.493Z,101519.63
2023-09-24T00:04:58.509Z,101518.75
2023-09-24T00:07:27.113Z,101523.34
2023-09-24T00:09:55.266Z,101534.31
2023-09-24T00:12:24.463Z,101562.44
2023-09-24T00:14:54.266Z,101545.88
2023-09-24T00:17:22.617Z,101580.50
2023-09-24T00:19:51.839Z,101572.97
2023-09-24T00:22:19.924Z,101611.66
2023-09-24T00:24:48.301Z,101639.16
2023-09-24T00:27:16.493Z,101662.22
2023-09-24T00:29:44.614Z,101671.66
2023-09-24T00:32:13.602Z,101660.00
2023-09-24T00:34:41.716Z,101667.81
2023-09-24T00:37:13.196Z,101687.09
2023-09-24T00:39:41.751Z,101676.16
2023-09-24T00:42:10.425Z,101673.38
2023-09-24T00:44:38.575Z,101669.16
2023-09-24T00:47:06.541Z,101676.25
2023-09-24T00:49:34.712Z,101697.63
2023-09-24T00:52:03.741Z,101725.06
2023-09-24T00:54:33.323Z,101711.78
2023-09-24T00:57:03.575Z,101680.25
2023-09-24T00:59:31.962Z,101696.31
2023-09-24T01:02:00.756Z,101709.28
2023-09-24T01:04:28.865Z,101706.91
2023-09-24T01:06:57.812Z,101715.78
2023-09-24T01:09:25.801Z,101705.06
2023-09-24T01:11:56.446Z,101734.38
2023-09-24T01:14:26.995Z,101742.69
2023-09-24T01:16:54.724Z,101754.56
2023-09-24T01:19:23.332Z,101779.25
2023-09-24T01:21:52.991Z,101776.97
2023-09-24T01:24:22.791Z,101864.47
2023-09-24T01:26:52.796Z,101860.03
2023-09-24T01:29:22.343Z,101848.88
2023-09-24T01:31:51.147Z,101822.25
2023-09-24T01:34:20.233Z,101787.31
2023-09-24T01:36:48.259Z,101778.13
2023-09-24T01:39:19.116Z,101811.56
2023-09-24T01:41:48.577Z,101801.69
2023-09-24T01:44:18.410Z,101821.19
2023-09-24T01:46:47.796Z,101856.50
2023-09-24T01:49:18.039Z,101819.91
2023-09-24T01:51:47.859Z,101817.19
2023-09-24T01:54:16.962Z,101793.94
2023-09-24T01:56:45.051Z,101783.16
2023-09-24T01:59:18.085Z,101759.63
2023-09-24T02:01:46.264Z,101730.66
2023-09-24T02:04:14.303Z,101720.34
2023-09-24T02:06:42.901Z,101735.84
2023-09-24T02:09:14.735Z,101740.75
2023-09-24T02:11:43.550Z,101746.56
2023-09-24T02:14:12.430Z,101763.31
2023-09-24T02:16:44.448Z,101784.19
2023-09-24T02:19:15.960Z,101795.63
2023-09-24T02:21:43.972Z,101855.03
2023-09-24T02:24:11.994Z,101865.16
2023-09-24T02:26:40.149Z,101907.38
2023-09-24T02:29:09.303Z,101872.31
2023-09-24T02:31:38.286Z,101884.97
2023-09-24T02:34:08.125Z,101889.22
2023-09-24T02:36:36.297Z,101892.13
2023-09-24T02:39:04.874Z,101902.34
2023-09-24T02:41:32.925Z,101918.47
2023-09-24T02:44:03.074Z,101948.34
2023-09-24T02:46:31.787Z,101965.97
2023-09-24T02:48:59.709Z,101955.44
2023-09-24T02:51:30.917Z,101968.56
2023-09-24T02:53:59.557Z,101973.44
2023-09-24T02:56:30.276Z,101972.22
2023-09-24T02:58:59.950Z,101978.72
2023-09-24T03:01:28.147Z,101998.03
2023-09-24T03:03:57.293Z,102020.81
2023-09-24T03:06:28.046Z,102030.91
2023-09-24T03:08:59.147Z,102029.84
2023-09-24T03:11:27.114Z,102078.28
2023-09-24T03:13:55.113Z,102084.75
2023-09-24T03:16:24.272Z,102067.31
2023-09-24T03:18:52.308Z,102086.16
2023-09-24T03:21:20.516Z,102102.03
2023-09-24T03:23:48.898Z,102101.88
2023-09-24T03:26:20.884Z,102102.69
2023-09-24T03:28:51.753Z,102083.75
2023-09-24T03:31:19.679Z,102067.88
2023-09-24T03:33:48.418Z,102061.19
2023-09-24T03:36:16.727Z,102066.88
2023-09-24T03:38:44.736Z,102058.97
2023-09-24T03:41:13.276Z,102059.38
2023-09-24T03:43:43.513Z,102079.25
2023-09-24T03:46:12.392Z,102095.56
2023-09-24T03:48:40.295Z,102127.28
2023-09-24T03:51:08.351Z,102126.88
2023-09-24T03:53:37.234Z,102122.94
2023-09-24T03:56:08.867Z,102112.16
2023-09-24T03:58:36.937Z,102126.69
2023-09-24T04:01:14.136Z,102148.34
2023-09-24T04:03:42.331Z,102173.66
2023-09-24T04:06:11.794Z,102192.34
2023-09-24T04:08:40.327Z,102229.56
2023-09-24T04:11:09.995Z,102220.25
2023-09-24T04:13:40.249Z,102250.84
2023-09-24T04:16:10.883Z,102262.81
2023-09-24T04:18:41.208Z,102257.69
2023-09-24T04:21:18.881Z,102268.81
2023-09-24T04:23:48.100Z,102239.66
2023-09-24T04:26:21.359Z,102247.84
2023-09-24T04:28:49.804Z,102249.47
2023-09-24T04:31:18.090Z,102246.53
2023-09-24T04:33:49.949Z,102242.41
2023-09-24T04:36:21.228Z,102255.28
2023-09-24T04:38:49.624Z,102267.91
2023-09-24T04:41:28.643Z,102262.16
2023-09-24T04:43:56.641Z,102262.88
2023-09-24T04:46:28.016Z,102220.06
2023-09-24T04:48:59.316Z,102190.09
2023-09-24T04:51:27.161Z,102190.88
2023-09-24T04:53:56.697Z,102233.50
2023-09-24T04:56:27.576Z,102218.47
2023-09-24T04:58:56.674Z,102239.22
2023-09-24T05:01:24.777Z,102208.38
2023-09-24T05:03:53.220Z,102194.72
2023-09-24T05:06:23.075Z,102244.66
2023-09-24T05:08:51.058Z,102257.94
2023-09-24T05:11:18.886Z,102229.66
2023-09-24T05:13:47.418Z,102206.94
2023-09-24T05:16:17.079Z,102243.09
2023-09-24T05:18:44.922Z,102260.00
2023-09-24T05:21:16.305Z,102229.63
2023-09-24T05:23:46.250Z,102249.38
2023-09-24T05:26:15.162Z,102283.44
2023-09-24T05:28:43.943Z,102269.88
2023-09-24T05:31:11.793Z,102262.84
2023-09-24T05:33:39.767Z,102252.72
2023-09-24T05:36:07.959Z,102258.88
2023-09-24T05:38:35.719Z,102291.09
2023-09-24T05:41:06.806Z,102293.13
2023-09-24T05:43:34.529Z,102317.09
2023-09-24T05:46:03.715Z,102294.31
2023-09-24T05:48:34.217Z,102263.56
2023-09-24T05:51:05.520Z,102282.00
2023-09-24T05:53:34.061Z,102274.50
2023-09-24T05:56:05.335Z,102294.41
2023-09-24T05:58:35.204Z,102305.72
2023-09-24T06:01:05.193Z,102307.72
2023-09-24T06:03:33.665Z,102316.38
2023-09-24T06:06:01.873Z,102340.75
2023-09-24T06:08:29.666Z,102360.84
2023-09-24T06:10:58.830Z,102394.38
2023-09-24T06:13:26.738Z,102368.03
2023-09-24T06:16:01.729Z,102362.38
2023-09-24T06:18:29.929Z,102372.38
2023-09-24T06:20:58.370Z,102343.88
2023-09-24T06:23:26.557Z,102335.91
2023-09-24T06:25:58.116Z,102345.31
2023-09-24T06:28:26.359Z,102321.53
2023-09-24T06:31:02.175Z,102341.81
2023-09-24T06:33:30.169Z,102327.09
2023-09-24T06:35:58.777Z,102335.38
2023-09-24T06:38:27.200Z,102294.38
2023-09-24T06:40:58.814Z,102320.59
2023-09-24T06:43:27.619Z,102320.09
2023-09-24T06:45:56.421Z,102313.91
2023-09-24T06:48:27.038Z,102291.72
2023-09-24T06:50:56.346Z,102264.97
2023-09-24T06:53:24.915Z,102270.53
2023-09-24T06:55:52.916Z,102280.38
2023-09-24T06:58:20.915Z,102301.34
2023-09-24T07:00:49.192Z,102287.34
2023-09-24T07:03:17.837Z,102272.28
2023-09-24T07:05:48.154Z,102272.53
2023-09-24T07:08:18.170Z,102192.78
2023-09-24T07:10:48.605Z,102174.38
2023-09-24T07:13:16.778Z,102153.81
2023-09-24T07:15:44.570Z,102158.00
2023-09-24T07:18:12.723Z,102163.69
2023-09-24T07:20:41.019Z,102164.25
2023-09-24T07:23:10.193Z,102165.50
2023-09-24T07:25:39.615Z,102162.53
2023-09-24T07:28:07.416Z,102132.63
2023-09-24T07:30:36.210Z,102136.91
2023-09-24T07:33:04.363Z,102137.13
2023-09-24T07:35:32.174Z,102133.69
2023-09-24T07:38:00.062Z,102141.09
2023-09-24T07:40:29.383Z,102139.53
2023-09-24T07:42:58.052Z,102124.81
2023-09-24T07:45:25.928Z,102086.81
2023-09-24T07:47:55.197Z,102123.69
2023-09-24T07:50:24.080Z,102132.00
2023-09-24T07:52:51.817Z,102105.97
2023-09-24T07:55:19.609Z,102078.22
2023-09-24T07:57:48.779Z,102061.19
2023-09-24T08:00:16.739Z,102027.72
2023-09-24T08:02:46.085Z,102007.72
2023-09-24T08:05:16.348Z,101995.75
2023-09-24T08:07:45.933Z,102013.69
2023-09-24T08:10:13.624Z,102014.09
2023-09-24T08:12:42.531Z,102017.47
2023-09-24T08:15:12.480Z,102025.03
2023-09-24T08:17:41.044Z,102015.44
2023-09-24T08:20:09.951Z,102025.69
2023-09-24T08:22:39.310Z,102027.94
2023-09-24T08:25:09.794Z,102008.16
2023-09-24T08:27:38.239Z,101813.56
2023-09-24T08:30:06.868Z,102226.72
2023-09-24T08:32:36.787Z,102255.44
2023-09-24T08:35:04.745Z,102310.34
2023-09-24T08:37:34.812Z,102333.53
2023-09-24T08:40:02.984Z,102302.50
2023-09-24T08:42:32.541Z,102311.41
2023-09-24T08:45:06.703Z,102256.69
2023-09-24T08:47:37.925Z,102284.53
2023-09-24T08:50:06.623Z,102386.63
2023-09-24T08:52:36.665Z,102393.63
2023-09-24T08:55:07.480Z,102444.19
2023-09-24T08:57:35.716Z,102484.75
2023-09-24T09:00:05.729Z,102468.00
2023-09-24T09:02:36.089Z,102494.22
2023-09-24T09:05:10.544Z,102521.78
2023-09-24T09:07:49.033Z,102524.63
2023-09-24T09:10:17.016Z,102523.75
2023-09-24T09:12:48.119Z,102515.88
2023-09-24T09:15:18.672Z,102539.53
2023-09-24T09:17:46.642Z,102532.06
2023-09-24T09:20:16.246Z,102538.03
2023-09-24T09:22:48.644Z,102535.81
2023-09-24T09:25:17.492Z,102548.00
2023-09-24T09:27:45.999Z,102544.63
2023-09-24T09:30:16.928Z,102538.69
2023-09-24T09:32:46.895Z,102537.06
2023-09-24T09:35:18.126Z,102540.22
2023-09-24T09:37:49.790Z,102540.56
2023-09-24T09:40:19.631Z,102547.00
2023-09-24T09:42:51.281Z,102543.53
2023-09-24T09:45:20.116Z,102538.03
2023-09-24T09:47:59.306Z,102546.72
2023-09-24T09:50:32.488Z,102554.34
2023-09-24T09:53:04.981Z,102546.75
2023-09-24T09:55:33.600Z,102560.97
2023-09-24T09:58:15.708Z,102562.94
2023-09-24T10:00:50.096Z,102556.13
2023-09-24T10:03:18.989Z,102558.31
2023-09-24T10:05:50.669Z,102564.81
2023-09-24T10:08:40.914Z,102558.91
2023-09-24T10:11:10.224Z,102561.06
2023-09-24T10:13:53.416Z,102552.41
2023-09-24T10:16:37.117Z,102572.91
2023-09-24T10:19:06.932Z,102571.16
2023-09-24T10:21:38.406Z,102561.56
2023-09-24T10:24:30.217Z,102565.84
2023-09-24T10:27:04.177Z,102564.00
2023-09-24T10:29:47.592Z,102557.91
2023-09-24T10:32:16.323Z,102547.13
2023-09-24T10:35:05.736Z,102551.03
2023-09-24T10:37:36.924Z,102555.88
2023-09-24T10:40:06.601Z,102547.97
2023-09-24T10:42:35.460Z,102548.59
2023-09-24T10:45:21.662Z,102559.66
2023-09-24T10:47:51.979Z,102557.00
2023-09-24T10:50:31.344Z,102552.47
2023-09-24T10:53:02.066Z,102564.16
2023-09-24T10:55:35.441Z,102561.16
2023-09-24T10:58:05.080Z,102564.84
2023-09-24T11:00:35.338Z,102562.72
2023-09-24T11:03:04.707Z,102559.19
2023-09-24T11:05:38.008Z,102556.66
2023-09-24T11:08:09.173Z,102571.69
2023-09-24T11:10:38.813Z,102565.94
2023-09-24T11:13:10.713Z,102562.78
2023-09-24T11:15:40.047Z,102562.59
2023-09-24T11:18:09.869Z,102559.94
2023-09-24T11:20:38.092Z,102563.38
2023-09-24T11:23:10.578Z,102572.66
2023-09-24T11:25:38.992Z,102573.19
2023-09-24T11:28:08.871Z,102570.22
2023-09-24T11:30:45.335Z,102588.53
2023-09-24T11:33:15.059Z,102598.03
2023-09-24T11:35:43.076Z,102595.91
2023-09-24T11:38:12.292Z,102582.81
2023-09-24T11:40:41.030Z,102570.47
2023-09-24T11:43:10.917Z,102590.28
2023-09-24T11:45:40.080Z,102570.56
2023-09-24T11:48:09.584Z,102562.03
2023-09-24T11:50:38.444Z,102560.28
2023-09-24T11:53:06.653Z,102569.34
2023-09-24T11:55:36.652Z,102565.53
2023-09-24T11:58:07.335Z,102565.50
2023-09-24T12:00:36.916Z,102572.78
2023-09-24T12:03:07.675Z,102563.47
2023-09-24T12:05:36.011Z,102567.88
2023-09-24T12:08:06.985Z,102558.75
2023-09-24T12:10:38.862Z,102559.53
2023-09-24T12:13:08.132Z,102556.25
2023-09-24T12:15:36.175Z,102559.16
2023-09-24T12:18:06.452Z,102558.63
2023-09-24T12:20:36.404Z,102550.50
2023-09-24T12:23:05.868Z,102560.91
2023-09-24T12:25:38.132Z,102558.75
2023-09-24T12:28:10.004Z,102554.03
2023-09-24T12:30:39.125Z,102570.88
2023-09-24T12:33:11.481Z,102563.63
2023-09-24T12:35:42.748Z,102557.97
2023-09-24T12:38:10.966Z,102550.31
2023-09-24T12:40:38.899Z,102566.56
2023-09-24T12:43:08.523Z,102561.56
2023-09-24T12:45:36.270Z,102559.63
2023-09-24T12:48:04.619Z,102566.66
2023-09-24T12:50:32.642Z,102574.94
2023-09-24T12:53:01.687Z,102585.41
2023-09-24T12:55:29.471Z,102588.34
2023-09-24T12:57:57.177Z,102592.44
2023-09-24T13:00:26.818Z,102589.19
2023-09-24T13:02:56.375Z,102585.84
2023-09-24T13:05:25.138Z,102572.69
2023-09-24T13:07:53.307Z,102574.44
2023-09-24T13:10:21.276Z,102557.38
2023-09-24T13:12:49.502Z,102562.34
2023-09-24T13:15:17.763Z,102580.63
2023-09-24T13:17:47.375Z,102591.13
2023-09-24T13:20:15.767Z,102596.13
2023-09-24T13:22:43.674Z,102587.03
2023-09-24T13:25:14.791Z,102584.69
2023-09-24T13:27:45.279Z,102570.47
2023-09-24T13:30:13.538Z,102561.63
2023-09-24T13:32:41.506Z,102546.88
2023-09-24T13:35:19.714Z,102550.72
2023-09-24T13:37:51.028Z,102546.94
2023-09-24T13:40:38.163Z,102550.06
2023-09-24T13:43:07.146Z,102586.72
2023-09-24T13:45:42.939Z,102581.59
2023-09-24T13:48:22.100Z,102593.53
2023-09-24T13:51:10.016Z,102596.94
2023-09-24T13:53:40.080Z,102580.53
2023-09-24T13:56:11.809Z,102593.00
2023-09-24T13:58:42.820Z,102586.13
2023-09-24T14:01:11.796Z,102586.19
2023-09-24T14:03:40.241Z,102561.47
2023-09-24T14:06:09.542Z,102563.28
2023-09-24T14:08:54.853Z,102555.38
2023-09-24T14:11:40.709Z,102553.66
2023-09-24T14:14:08.658Z,102558.75
2023-09-24T14:16:39.086Z,102571.78
2023-09-24T14:19:07.299Z,102592.78
2023-09-24T14:21:36.622Z,102596.28
2023-09-24T14:24:04.437Z,102597.78
2023-09-24T14:26:34.645Z,102603.09
2023-09-24T14:29:03.321Z,102601.34
2023-09-24T14:31:31.386Z,102612.44
2023-09-24T14:33:59.042Z,102616.16
2023-09-24T14:36:26.716Z,102593.03
2023-09-24T14:38:55.702Z,102583.66
2023-09-24T14:41:24.484Z,102582.25
2023-09-24T14:43:52.239Z,102584.22
2023-09-24T14:46:21.159Z,102579.84
2023-09-24T14:48:48.941Z,102583.50
2023-09-24T14:51:18.741Z,102582.59
2023-09-24T14:53:46.898Z,102585.69
2023-09-24T14:56:21.820Z,102568.66
2023-09-24T14:58:49.430Z,102597.03
2023-09-24T15:01:17.152Z,102600.06
2023-09-24T15:03:45.531Z,102604.13
2023-09-24T15:06:13.478Z,102610.09
2023-09-24T15:08:42.204Z,102608.41
2023-09-24T15:11:10.113Z,102595.03
2023-09-24T15:13:41.552Z,102586.88
2023-09-24T15:16:09.336Z,102597.75
2023-09-24T15:18:37.293Z,102591.06
2023-09-24T15:21:05.478Z,102576.91
2023-09-24T15:23:33.105Z,102568.19
2023-09-24T15:26:00.737Z,102575.78
2023-09-24T15:28:28.377Z,102569.00
2023-09-24T15:30:57.366Z,102581.59
2023-09-24T15:33:25.119Z,102573.91
2023-09-24T15:35:52.886Z,102591.66
2023-09-24T15:38:20.536Z,102597.47
2023-09-24T15:40:48.426Z,102582.44
2023-09-24T15:43:16.060Z,102598.22
2023-09-24T15:45:47.752Z,102593.47
2023-09-24T15:48:17.179Z,102597.16
2023-09-24T15:51:06.202Z,102603.53
2023-09-24T15:54:57.740Z,102603.38
2023-09-24T15:57:25.391Z,102590.41
2023-09-24T15:59:53.038Z,102598.03
2023-09-24T16:02:20.650Z,102599.91
2023-09-24T16:04:48.899Z,102591.16
2023-09-24T16:07:16.556Z,102587.75
2023-09-24T16:09:44.173Z,102592.97
2023-09-24T16:12:13.332Z,102592.13
2023-09-24T16:14:41.020Z,102594.22
2023-09-24T16:17:08.582Z,102594.91
2023-09-24T16:19:36.171Z,102601.84
2023-09-24T16:22:03.791Z,102610.44
2023-09-24T16:24:32.269Z,102607.25
2023-09-24T16:26:59.894Z,102611.28
2023-09-24T16:29:28.889Z,102607.69
2023-09-24T16:31:56.529Z,102607.16
2023-09-24T16:34:24.159Z,102614.28
2023-09-24T16:36:53.498Z,102612.50
2023-09-24T16:39:21.287Z,102615.44
2023-09-24T16:41:48.906Z,102621.44
2023-09-24T16:44:16.591Z,102611.22
2023-09-24T16:46:45.536Z,102602.81
2023-09-24T16:49:14.516Z,102599.53
2023-09-24T16:51:42.080Z,102592.91
2023-09-24T16:54:09.722Z,102601.03
2023-09-24T16:56:37.310Z,102597.13
2023-09-24T16:59:04.929Z,102594.53
2023-09-24T17:01:34.245Z,102599.84
2023-09-24T17:04:03.456Z,102593.44
2023-09-24T17:06:31.471Z,102590.72
2023-09-24T17:08:59.239Z,102584.19
2023-09-24T17:11:26.885Z,102574.16
2023-09-24T17:13:54.583Z,102558.13
2023-09-24T17:16:22.243Z,102553.91
2023-09-24T17:18:50.537Z,102551.00
2023-09-24T17:21:19.717Z,102550.53
2023-09-24T17:23:47.993Z,102552.22
2023-09-24T17:26:17.299Z,102539.91
2023-09-24T17:28:45.905Z,102539.66
2023-09-24T17:31:14.403Z,102533.75
2023-09-24T17:33:42.337Z,102531.22
2023-09-24T17:36:13.009Z,102532.50
2023-09-24T17:38:42.201Z,102526.97
2023-09-24T17:41:10.177Z,102520.13
2023-09-24T17:43:37.781Z,102534.25
2023-09-24T17:46:06.178Z,102517.88
2023-09-24T17:48:33.960Z,102522.31
2023-09-24T17:51:05.019Z,102503.25
2023-09-24T17:53:33.813Z,102514.44
2023-09-24T17:56:03.501Z,102497.00
2023-09-24T17:58:31.192Z,102504.72
2023-09-24T18:01:06.225Z,102510.09
2023-09-24T18:03:34.674Z,102488.56
2023-09-24T18:06:02.768Z,102497.91
2023-09-24T18:08:32.243Z,102505.38
2023-09-24T18:11:00.301Z,102499.44
2023-09-24T18:13:29.658Z,102518.63
2023-09-24T18:15:59.122Z,102512.44
2023-09-24T18:18:28.237Z,102495.97
2023-09-24T18:20:57.865Z,102491.84
2023-09-24T18:23:25.864Z,102493.25
2023-09-24T18:25:53.964Z,102475.69
2023-09-24T18:28:21.621Z,102473.44
2023-09-24T18:30:50.839Z,102478.94
2023-09-24T18:33:18.692Z,102481.72
2023-09-24T18:35:46.526Z,102448.03
2023-09-24T18:38:14.163Z,102423.00
2023-09-24T18:40:43.028Z,102414.97
2023-09-24T18:43:10.634Z,102440.34
2023-09-24T18:45:38.932Z,102449.66
2023-09-24T18:48:08.606Z,102441.03
2023-09-24T18:50:36.959Z,102443.69
2023-09-24T18:53:05.056Z,102435.28
2023-09-24T18:55:32.740Z,102422.84
2023-09-24T18:58:00.549Z,102436.09
2023-09-24T19:00:28.231Z,102425.69
2023-09-24T19:02:56.022Z,102411.88
2023-09-24T19:05:25.232Z,102418.78
2023-09-24T19:07:53.373Z,102426.25
2023-09-24T19:10:20.931Z,102434.41
2023-09-24T19:12:48.907Z,102417.06
2023-09-24T19:15:17.821Z,102409.91
2023-09-24T19:17:46.868Z,102417.75
2023-09-24T19:20:14.766Z,102419.75
2023-09-24T19:22:43.749Z,102418.63
2023-09-24T19:25:11.392Z,102421.31
2023-09-24T19:27:39.031Z,102416.38
2023-09-24T19:30:07.519Z,102408.91
2023-09-24T19:32:35.236Z,102406.78
2023-09-24T19:35:03.042Z,102414.84
2023-09-24T19:37:30.676Z,102386.66
2023-09-24T19:39:59.663Z,102360.63
2023-09-24T19:42:27.391Z,102347.00
2023-09-24T19:44:55.056Z,102335.03
2023-09-24T19:47:22.751Z,102322.66
2023-09-24T19:49:50.777Z,102304.53
2023-09-24T19:52:18.370Z,102307.34
2023-09-24T19:54:46.008Z,102310.09
2023-09-24T19:57:15.363Z,102340.59
2023-09-24T19:59:43.042Z,102314.00
2023-09-24T20:02:10.669Z,102326.97
2023-09-24T20:04:38.291Z,102336.94
2023-09-24T20:07:05.986Z,102350.81
2023-09-24T20:09:33.834Z,102329.03
2023-09-24T20:12:01.646Z,102319.50
2023-09-24T20:14:34.052Z,102316.41
2023-09-24T20:17:01.815Z,102306.31
2023-09-24T20:19:29.870Z,102299.56
2023-09-24T20:21:58.714Z,102288.97
2023-09-24T20:24:28.458Z,102286.22
2023-09-24T20:26:56.144Z,102298.03
2023-09-24T20:29:23.778Z,102302.38
2023-09-24T20:31:52.908Z,102304.50
2023-09-24T20:34:20.602Z,102301.63
2023-09-24T20:36:48.279Z,102327.97
2023-09-24T20:39:16.136Z,102328.09
2023-09-24T20:41:44.144Z,102330.66
2023-09-24T20:44:11.750Z,102336.63
2023-09-24T20:46:42.331Z,102342.50
2023-09-24T20:49:11.473Z,102329.97
2023-09-24T20:51:39.610Z,102340.72
2023-09-24T20:54:32.149Z,102340.53
2023-09-24T20:57:05.859Z,102342.31
2023-09-24T20:59:37.152Z,102320.00
2023-09-24T21:02:05.053Z,102318.66
2023-09-24T21:04:35.867Z,102324.91
2023-09-24T21:07:03.521Z,102334.03
2023-09-24T21:09:31.199Z,102346.03
2023-09-24T21:11:58.876Z,102312.91
2023-09-24T21:14:27.041Z,102304.34
2023-09-24T21:16:55.055Z,102301.63
2023-09-24T21:19:22.774Z,102279.13
2023-09-24T21:21:51.832Z,102289.47
2023-09-24T21:24:19.529Z,102279.31
2023-09-24T21:26:47.185Z,102282.44
2023-09-24T21:29:14.867Z,102273.09
2023-09-24T21:31:42.685Z,102276.25
2023-09-24T21:34:10.472Z,102282.72
2023-09-24T21:39:53.975Z,102273.53
2023-09-24T21:42:22.072Z,102262.25
2023-09-24T21:44:49.713Z,102261.72
2023-09-24T21:47:17.423Z,102258.78
2023-09-24T21:49:45.207Z,102263.00
2023-09-24T21:52:12.792Z,102259.91
2023-09-24T21:54:40.454Z,102249.50
2023-09-24T21:57:09.530Z,102255.03
2023-09-24T21:59:37.154Z,102253.25
2023-09-24T22:02:04.887Z,102254.19
2023-09-24T22:04:32.830Z,102238.47
2023-09-24T22:07:00.805Z,102253.84
2023-09-24T22:09:28.792Z,102267.81
2023-09-24T22:11:56.394Z,102265.50
2023-09-24T22:14:25.572Z,102249.13
2023-09-24T22:16:53.371Z,102227.94
2023-09-24T22:19:20.975Z,102238.59
2023-09-24T22:21:48.631Z,102230.78
2023-09-24T22:24:16.307Z,102244.38
2023-09-24T22:26:43.898Z,102241.00
2023-09-24T22:29:11.512Z,102251.19
2023-09-24T22:31:40.651Z,102247.75
2023-09-24T22:34:12.614Z,102237.94
2023-09-24T22:36:40.238Z,102246.09
2023-09-24T22:39:07.912Z,102239.31
2023-09-24T22:41:35.978Z,102249.56
2023-09-24T22:44:05.091Z,102249.69
2023-09-24T22:46:32.852Z,102238.53
2023-09-24T22:49:02.138Z,102241.63
2023-09-24T22:51:29.823Z,102238.19
2023-09-24T22:53:57.505Z,102248.25
2023-09-24T22:56:25.322Z,102252.56
2023-09-24T22:58:53.455Z,102258.66
2023-09-24T23:01:21.093Z,102248.84
2023-09-24T23:03:48.924Z,102234.63
2023-09-24T23:06:18.153Z,102218.22
2023-09-24T23:08:45.777Z,102213.97
2023-09-24T23:11:13.437Z,102210.66
2023-09-24T23:13:41.072Z,102220.53
2023-09-24T23:16:08.781Z,102200.03
2023-09-24T23:18:38.040Z,102201.72
2023-09-24T23:21:06.607Z,102196.09
2023-09-24T23:23:36.175Z,102195.75
2023-09-24T23:26:05.520Z,102183.94
2023-09-24T23:28:33.187Z,102188.22
2023-09-24T23:31:00.887Z,102174.25
2023-09-24T23:33:28.578Z,102176.22
2023-09-24T23:35:56.179Z,102172.22
2023-09-24T23:38:23.892Z,102168.44
2023-09-24T23:40:53.558Z,102174.09
2023-09-24T23:43:21.569Z,102170.78
2023-09-24T23:45:49.294Z,102163.63
2023-09-24T23:48:17.703Z,102168.50
2023-09-24T23:50:45.741Z,102157.19
2023-09-24T23:53:15.632Z,102162.13
2023-09-24T23:55:43.463Z,102162.41
2023-09-24T23:58:12.513Z,102153.03
